Kitwanga, Canada
Current Conditions -  °F | °C
As of 1:02 AM on Wednesday 22 Oct 2014 (Local Time) from CYYD Reporting Station
Light Rain Light Rain  
Wind Chill: 40°   Ceiling: 4200
Heat Index: 43°   Visibility: 5mi
Dew Point: 39°   Wind: 5mph
Humidity: 87%   Direction: 130°SE
Pressure: 29.38"   Gusts: NA
Location:  55.1°N, 128.07°W
Report Text: CYYD 220802Z AUTO 13004KT 5SM -RA BR SCT035 OVC042 06/04 A2938 RMK SLP958
Loading
Personal Weather Stations






























Interactive Weather Map New forecast layout! Learn more

10-Day Weather Forecast

Advertisements
Track Severe Weather on mobile